sensor_id;sensor_type;location;lat;lon;timestamp;P1;durP1;ratioP1;P2;durP2;ratioP2
58294;SDS011;45705;55.592;37.460;2022-08-16T00:01:10;10.88;;;5.18;;
58294;SDS011;45705;55.592;37.460;2022-08-16T00:03:36;9.98;;;5.70;;
58294;SDS011;45705;55.592;37.460;2022-08-16T00:06:02;8.85;;;5.40;;
58294;SDS011;45705;55.592;37.460;2022-08-16T00:08:28;15.07;;;5.78;;
58294;SDS011;45705;55.592;37.460;2022-08-16T00:10:54;15.07;;;5.85;;
58294;SDS011;45705;55.592;37.460;2022-08-16T00:13:19;10.45;;;5.25;;
58294;SDS011;45705;55.592;37.460;2022-08-16T00:15:46;13.23;;;5.28;;
58294;SDS011;45705;55.592;37.460;2022-08-16T00:18:13;9.48;;;5.30;;
58294;SDS011;45705;55.592;37.460;2022-08-16T00:20:41;6.50;;;5.03;;
58294;SDS011;45705;55.592;37.460;2022-08-16T00:23:09;8.10;;;4.72;;
58294;SDS011;45705;55.592;37.460;2022-08-16T00:25:36;9.43;;;4.57;;
58294;SDS011;45705;55.592;37.460;2022-08-16T00:28:02;9.10;;;4.75;;
58294;SDS011;45705;55.592;37.460;2022-08-16T00:30:29;8.63;;;4.53;;
58294;SDS011;45705;55.592;37.460;2022-08-16T00:32:56;9.32;;;5.00;;
58294;SDS011;45705;55.592;37.460;2022-08-16T00:35:24;10.05;;;5.15;;
58294;SDS011;45705;55.592;37.460;2022-08-16T00:37:52;7.70;;;4.63;;
58294;SDS011;45705;55.592;37.460;2022-08-16T00:40:22;10.18;;;4.78;;
58294;SDS011;45705;55.592;37.460;2022-08-16T00:42:50;7.13;;;4.70;;
58294;SDS011;45705;55.592;37.460;2022-08-16T00:48:02;6.38;;;4.80;;
58294;SDS011;45705;55.592;37.460;2022-08-16T00:50:30;5.63;;;4.32;;
58294;SDS011;45705;55.592;37.460;2022-08-16T00:52:58;12.60;;;5.35;;
58294;SDS011;45705;55.592;37.460;2022-08-16T00:55:24;11.10;;;5.25;;
58294;SDS011;45705;55.592;37.460;2022-08-16T00:57:52;11.50;;;5.03;;
58294;SDS011;45705;55.592;37.460;2022-08-16T01:00:20;9.73;;;4.72;;
58294;SDS011;45705;55.592;37.460;2022-08-16T01:02:49;11.20;;;5.20;;
58294;SDS011;45705;55.592;37.460;2022-08-16T01:05:15;8.93;;;5.70;;
58294;SDS011;45705;55.592;37.460;2022-08-16T01:07:41;9.93;;;5.22;;
58294;SDS011;45705;55.592;37.460;2022-08-16T01:10:08;11.82;;;5.72;;
58294;SDS011;45705;55.592;37.460;2022-08-16T01:12:35;11.68;;;5.63;;
58294;SDS011;45705;55.592;37.460;2022-08-16T01:15:01;14.23;;;5.30;;
58294;SDS011;45705;55.592;37.460;2022-08-16T01:17:29;9.77;;;5.95;;
58294;SDS011;45705;55.592;37.460;2022-08-16T01:19:58;11.75;;;5.20;;
58294;SDS011;45705;55.592;37.460;2022-08-16T01:25:34;12.60;;;5.57;;
58294;SDS011;45705;55.592;37.460;2022-08-16T01:28:05;12.95;;;5.60;;
58294;SDS011;45705;55.592;37.460;2022-08-16T01:30:35;18.90;;;5.15;;
58294;SDS011;45705;55.592;37.460;2022-08-16T01:33:05;9.40;;;5.22;;
58294;SDS011;45705;55.592;37.460;2022-08-16T01:35:40;12.68;;;5.75;;
58294;SDS011;45705;55.592;37.460;2022-08-16T01:40:50;9.20;;;5.20;;
58294;SDS011;45705;55.592;37.460;2022-08-16T01:43:18;14.30;;;5.18;;
58294;SDS011;45705;55.592;37.460;2022-08-16T01:45:44;8.68;;;4.85;;
58294;SDS011;45705;55.592;37.460;2022-08-16T01:48:12;8.90;;;5.68;;
58294;SDS011;45705;55.592;37.460;2022-08-16T01:50:39;11.15;;;4.78;;
58294;SDS011;45705;55.592;37.460;2022-08-16T01:53:07;6.95;;;5.28;;
58294;SDS011;45705;55.592;37.460;2022-08-16T01:55:53;7.72;;;4.43;;
58294;SDS011;45705;55.592;37.460;2022-08-16T01:58:21;10.18;;;5.40;;
58294;SDS011;45705;55.592;37.460;2022-08-16T02:00:48;11.02;;;5.32;;
58294;SDS011;45705;55.592;37.460;2022-08-16T02:03:15;9.40;;;6.03;;
58294;SDS011;45705;55.592;37.460;2022-08-16T02:05:42;8.98;;;5.05;;
58294;SDS011;45705;55.592;37.460;2022-08-16T02:08:08;11.90;;;5.40;;
58294;SDS011;45705;55.592;37.460;2022-08-16T02:10:34;6.93;;;4.85;;
58294;SDS011;45705;55.592;37.460;2022-08-16T02:13:01;14.65;;;5.68;;
58294;SDS011;45705;55.592;37.460;2022-08-16T02:15:30;10.27;;;5.22;;
58294;SDS011;45705;55.592;37.460;2022-08-16T02:17:58;10.73;;;5.63;;
58294;SDS011;45705;55.592;37.460;2022-08-16T02:20:25;7.50;;;4.78;;
58294;SDS011;45705;55.592;37.460;2022-08-16T02:22:53;10.98;;;5.47;;
58294;SDS011;45705;55.592;37.460;2022-08-16T02:25:21;12.73;;;5.17;;
58294;SDS011;45705;55.592;37.460;2022-08-16T02:27:47;10.23;;;5.25;;
58294;SDS011;45705;55.592;37.460;2022-08-16T02:30:16;11.57;;;5.22;;
58294;SDS011;45705;55.592;37.460;2022-08-16T02:32:45;8.02;;;5.43;;
58294;SDS011;45705;55.592;37.460;2022-08-16T02:35:12;8.43;;;5.07;;
58294;SDS011;45705;55.592;37.460;2022-08-16T02:37:38;9.55;;;4.93;;
58294;SDS011;45705;55.592;37.460;2022-08-16T02:40:05;8.95;;;4.80;;
58294;SDS011;45705;55.592;37.460;2022-08-16T02:42:31;11.02;;;4.78;;
58294;SDS011;45705;55.592;37.460;2022-08-16T02:44:57;11.93;;;5.07;;
58294;SDS011;45705;55.592;37.460;2022-08-16T02:47:22;9.95;;;5.18;;
58294;SDS011;45705;55.592;37.460;2022-08-16T02:49:48;9.60;;;5.10;;
58294;SDS011;45705;55.592;37.460;2022-08-16T02:52:15;9.32;;;5.20;;
58294;SDS011;45705;55.592;37.460;2022-08-16T02:54:42;15.05;;;5.65;;
58294;SDS011;45705;55.592;37.460;2022-08-16T02:57:08;11.23;;;4.57;;
58294;SDS011;45705;55.592;37.460;2022-08-16T02:59:34;12.10;;;5.78;;
58294;SDS011;45705;55.592;37.460;2022-08-16T03:02:00;11.88;;;5.68;;
58294;SDS011;45705;55.592;37.460;2022-08-16T03:04:28;11.25;;;5.47;;
58294;SDS011;45705;55.592;37.460;2022-08-16T03:06:54;9.40;;;6.15;;
58294;SDS011;45705;55.592;37.460;2022-08-16T03:09:32;10.82;;;5.47;;
58294;SDS011;45705;55.592;37.460;2022-08-16T03:12:00;10.38;;;5.55;;
58294;SDS011;45705;55.592;37.460;2022-08-16T03:14:25;10.80;;;5.70;;
58294;SDS011;45705;55.592;37.460;2022-08-16T03:16:56;13.18;;;5.38;;
58294;SDS011;45705;55.592;37.460;2022-08-16T03:19:21;6.20;;;5.30;;
58294;SDS011;45705;55.592;37.460;2022-08-16T03:21:47;8.13;;;5.05;;
58294;SDS011;45705;55.592;37.460;2022-08-16T03:24:13;10.77;;;5.22;;
58294;SDS011;45705;55.592;37.460;2022-08-16T03:26:39;12.98;;;5.57;;
58294;SDS011;45705;55.592;37.460;2022-08-16T03:29:05;8.32;;;5.30;;
58294;SDS011;45705;55.592;37.460;2022-08-16T03:31:31;16.63;;;5.53;;
58294;SDS011;45705;55.592;37.460;2022-08-16T03:33:57;9.55;;;5.63;;
58294;SDS011;45705;55.592;37.460;2022-08-16T03:36:23;13.45;;;5.55;;
58294;SDS011;45705;55.592;37.460;2022-08-16T03:38:54;10.15;;;5.13;;
58294;SDS011;45705;55.592;37.460;2022-08-16T03:41:20;10.90;;;5.38;;
58294;SDS011;45705;55.592;37.460;2022-08-16T03:46:16;10.75;;;4.68;;
58294;SDS011;45705;55.592;37.460;2022-08-16T03:48:45;13.18;;;4.60;;
58294;SDS011;45705;55.592;37.460;2022-08-16T03:51:16;8.57;;;4.70;;
58294;SDS011;45705;55.592;37.460;2022-08-16T03:53:48;6.07;;;4.40;;
58294;SDS011;45705;55.592;37.460;2022-08-16T03:56:14;11.40;;;4.88;;
58294;SDS011;45705;55.592;37.460;2022-08-16T03:58:40;11.05;;;4.50;;
58294;SDS011;45705;55.592;37.460;2022-08-16T04:01:07;10.82;;;5.07;;
58294;SDS011;45705;55.592;37.460;2022-08-16T04:03:33;9.82;;;4.82;;
58294;SDS011;45705;55.592;37.460;2022-08-16T04:05:59;14.60;;;4.82;;
58294;SDS011;45705;55.592;37.460;2022-08-16T04:08:26;9.95;;;4.57;;
58294;SDS011;45705;55.592;37.460;2022-08-16T04:10:55;6.95;;;4.45;;
58294;SDS011;45705;55.592;37.460;2022-08-16T04:13:22;6.53;;;4.05;;
58294;SDS011;45705;55.592;37.460;2022-08-16T04:15:49;11.48;;;4.20;;
58294;SDS011;45705;55.592;37.460;2022-08-16T04:18:21;9.80;;;4.60;;
58294;SDS011;45705;55.592;37.460;2022-08-16T04:20:50;9.10;;;4.60;;
58294;SDS011;45705;55.592;37.460;2022-08-16T04:23:19;8.30;;;4.80;;
58294;SDS011;45705;55.592;37.460;2022-08-16T04:25:46;8.75;;;4.53;;
58294;SDS011;45705;55.592;37.460;2022-08-16T04:28:12;5.38;;;3.67;;
58294;SDS011;45705;55.592;37.460;2022-08-16T04:30:39;10.23;;;4.50;;
58294;SDS011;45705;55.592;37.460;2022-08-16T04:33:05;11.45;;;4.30;;
58294;SDS011;45705;55.592;37.460;2022-08-16T04:35:34;5.82;;;4.13;;
58294;SDS011;45705;55.592;37.460;2022-08-16T04:38:01;11.07;;;4.38;;
58294;SDS011;45705;55.592;37.460;2022-08-16T04:40:33;8.05;;;3.70;;
58294;SDS011;45705;55.592;37.460;2022-08-16T04:47:55;5.05;;;4.03;;
58294;SDS011;45705;55.592;37.460;2022-08-16T04:50:23;7.73;;;4.17;;
58294;SDS011;45705;55.592;37.460;2022-08-16T04:53:09;10.93;;;3.78;;
58294;SDS011;45705;55.592;37.460;2022-08-16T04:55:39;5.93;;;3.97;;
58294;SDS011;45705;55.592;37.460;2022-08-16T04:58:06;7.50;;;4.30;;
58294;SDS011;45705;55.592;37.460;2022-08-16T05:00:32;8.60;;;3.92;;
58294;SDS011;45705;55.592;37.460;2022-08-16T05:05:45;6.80;;;3.65;;
58294;SDS011;45705;55.592;37.460;2022-08-16T05:08:14;5.93;;;3.30;;
58294;SDS011;45705;55.592;37.460;2022-08-16T05:10:43;14.18;;;3.67;;
58294;SDS011;45705;55.592;37.460;2022-08-16T05:13:09;6.97;;;3.38;;
58294;SDS011;45705;55.592;37.460;2022-08-16T05:15:36;7.00;;;3.60;;
58294;SDS011;45705;55.592;37.460;2022-08-16T05:18:02;6.18;;;3.63;;
58294;SDS011;45705;55.592;37.460;2022-08-16T05:20:33;7.28;;;3.90;;
58294;SDS011;45705;55.592;37.460;2022-08-16T05:22:59;6.53;;;3.60;;
58294;SDS011;45705;55.592;37.460;2022-08-16T05:25:25;9.02;;;3.63;;
58294;SDS011;45705;55.592;37.460;2022-08-16T05:27:52;10.05;;;3.80;;
58294;SDS011;45705;55.592;37.460;2022-08-16T05:30:21;8.27;;;3.72;;
58294;SDS011;45705;55.592;37.460;2022-08-16T05:32:48;6.38;;;3.40;;
58294;SDS011;45705;55.592;37.460;2022-08-16T05:35:15;7.53;;;3.45;;
58294;SDS011;45705;55.592;37.460;2022-08-16T05:38:05;8.25;;;3.90;;
58294;SDS011;45705;55.592;37.460;2022-08-16T05:40:34;5.55;;;3.08;;
58294;SDS011;45705;55.592;37.460;2022-08-16T05:43:00;9.60;;;3.47;;
58294;SDS011;45705;55.592;37.460;2022-08-16T05:45:25;10.63;;;3.22;;
58294;SDS011;45705;55.592;37.460;2022-08-16T05:47:55;12.63;;;3.35;;
58294;SDS011;45705;55.592;37.460;2022-08-16T05:50:21;8.77;;;3.72;;
58294;SDS011;45705;55.592;37.460;2022-08-16T05:52:48;6.03;;;3.03;;
58294;SDS011;45705;55.592;37.460;2022-08-16T05:55:15;4.97;;;3.17;;
58294;SDS011;45705;55.592;37.460;2022-08-16T05:57:41;7.05;;;3.30;;
58294;SDS011;45705;55.592;37.460;2022-08-16T06:02:40;9.63;;;3.88;;
58294;SDS011;45705;55.592;37.460;2022-08-16T06:05:26;6.65;;;3.33;;
58294;SDS011;45705;55.592;37.460;2022-08-16T06:07:53;5.10;;;3.30;;
58294;SDS011;45705;55.592;37.460;2022-08-16T06:10:26;8.85;;;4.00;;
58294;SDS011;45705;55.592;37.460;2022-08-16T06:12:52;8.68;;;3.83;;
58294;SDS011;45705;55.592;37.460;2022-08-16T06:15:19;6.43;;;3.80;;
58294;SDS011;45705;55.592;37.460;2022-08-16T06:17:46;9.13;;;3.97;;
58294;SDS011;45705;55.592;37.460;2022-08-16T06:20:21;8.50;;;3.85;;
58294;SDS011;45705;55.592;37.460;2022-08-16T06:22:50;6.25;;;3.70;;
58294;SDS011;45705;55.592;37.460;2022-08-16T06:25:25;7.18;;;3.90;;
58294;SDS011;45705;55.592;37.460;2022-08-16T06:27:54;6.82;;;3.97;;
58294;SDS011;45705;55.592;37.460;2022-08-16T06:30:20;7.50;;;3.75;;
58294;SDS011;45705;55.592;37.460;2022-08-16T06:32:48;8.10;;;3.65;;
58294;SDS011;45705;55.592;37.460;2022-08-16T06:35:14;10.45;;;4.20;;
58294;SDS011;45705;55.592;37.460;2022-08-16T06:37:42;7.93;;;3.40;;
58294;SDS011;45705;55.592;37.460;2022-08-16T06:40:09;8.23;;;3.45;;
58294;SDS011;45705;55.592;37.460;2022-08-16T06:42:40;8.98;;;3.47;;
58294;SDS011;45705;55.592;37.460;2022-08-16T06:45:17;4.53;;;3.17;;
58294;SDS011;45705;55.592;37.460;2022-08-16T06:47:48;8.27;;;3.55;;
58294;SDS011;45705;55.592;37.460;2022-08-16T06:50:14;6.07;;;3.50;;
58294;SDS011;45705;55.592;37.460;2022-08-16T06:52:44;6.28;;;3.30;;
58294;SDS011;45705;55.592;37.460;2022-08-16T06:55:12;6.75;;;3.40;;
58294;SDS011;45705;55.592;37.460;2022-08-16T06:57:44;9.05;;;3.70;;
58294;SDS011;45705;55.592;37.460;2022-08-16T07:00:10;10.85;;;3.70;;
58294;SDS011;45705;55.592;37.460;2022-08-16T07:02:45;12.25;;;3.75;;
58294;SDS011;45705;55.592;37.460;2022-08-16T07:05:12;5.70;;;3.20;;
58294;SDS011;45705;55.592;37.460;2022-08-16T07:07:43;7.53;;;3.58;;
58294;SDS011;45705;55.592;37.460;2022-08-16T07:10:10;6.20;;;3.50;;
58294;SDS011;45705;55.592;37.460;2022-08-16T07:12:36;15.40;;;4.07;;
58294;SDS011;45705;55.592;37.460;2022-08-16T07:15:02;8.90;;;3.72;;
58294;SDS011;45705;55.592;37.460;2022-08-16T07:17:30;6.72;;;3.20;;
58294;SDS011;45705;55.592;37.460;2022-08-16T07:22:29;5.47;;;3.40;;
58294;SDS011;45705;55.592;37.460;2022-08-16T07:24:54;7.45;;;3.60;;
58294;SDS011;45705;55.592;37.460;2022-08-16T07:27:22;10.05;;;3.63;;
58294;SDS011;45705;55.592;37.460;2022-08-16T07:29:47;7.38;;;3.53;;
58294;SDS011;45705;55.592;37.460;2022-08-16T07:32:14;8.48;;;3.50;;
58294;SDS011;45705;55.592;37.460;2022-08-16T07:34:40;5.60;;;3.10;;
58294;SDS011;45705;55.592;37.460;2022-08-16T07:37:08;6.53;;;3.40;;
58294;SDS011;45705;55.592;37.460;2022-08-16T07:40:05;6.75;;;3.28;;
58294;SDS011;45705;55.592;37.460;2022-08-16T07:42:32;8.10;;;3.20;;
58294;SDS011;45705;55.592;37.460;2022-08-16T07:44:57;10.43;;;3.85;;
58294;SDS011;45705;55.592;37.460;2022-08-16T07:47:23;6.28;;;3.80;;
58294;SDS011;45705;55.592;37.460;2022-08-16T07:49:50;6.50;;;3.70;;
58294;SDS011;45705;55.592;37.460;2022-08-16T07:52:16;8.70;;;3.67;;
58294;SDS011;45705;55.592;37.460;2022-08-16T07:54:42;13.25;;;4.00;;
58294;SDS011;45705;55.592;37.460;2022-08-16T07:57:09;10.40;;;3.67;;
58294;SDS011;45705;55.592;37.460;2022-08-16T07:59:37;10.52;;;3.65;;
58294;SDS011;45705;55.592;37.460;2022-08-16T08:02:03;7.28;;;3.90;;
58294;SDS011;45705;55.592;37.460;2022-08-16T08:04:29;6.38;;;4.00;;
58294;SDS011;45705;55.592;37.460;2022-08-16T08:06:58;7.18;;;3.60;;
58294;SDS011;45705;55.592;37.460;2022-08-16T08:09:24;9.80;;;3.78;;
58294;SDS011;45705;55.592;37.460;2022-08-16T08:11:51;13.05;;;4.00;;
58294;SDS011;45705;55.592;37.460;2022-08-16T08:14:17;7.75;;;3.53;;
58294;SDS011;45705;55.592;37.460;2022-08-16T08:16:46;4.60;;;3.40;;
58294;SDS011;45705;55.592;37.460;2022-08-16T08:19:26;4.65;;;3.42;;
58294;SDS011;45705;55.592;37.460;2022-08-16T08:21:52;5.60;;;3.42;;
58294;SDS011;45705;55.592;37.460;2022-08-16T08:24:22;9.07;;;4.20;;
58294;SDS011;45705;55.592;37.460;2022-08-16T08:26:49;8.17;;;3.93;;
58294;SDS011;45705;55.592;37.460;2022-08-16T08:29:16;8.23;;;4.00;;
58294;SDS011;45705;55.592;37.460;2022-08-16T08:31:44;5.93;;;3.60;;
58294;SDS011;45705;55.592;37.460;2022-08-16T08:34:11;5.10;;;3.80;;
58294;SDS011;45705;55.592;37.460;2022-08-16T08:36:38;6.00;;;3.78;;
58294;SDS011;45705;55.592;37.460;2022-08-16T08:39:15;12.38;;;3.72;;
58294;SDS011;45705;55.592;37.460;2022-08-16T08:41:42;8.23;;;4.07;;
58294;SDS011;45705;55.592;37.460;2022-08-16T08:44:09;6.43;;;4.10;;
58294;SDS011;45705;55.592;37.460;2022-08-16T08:46:35;9.90;;;3.70;;
58294;SDS011;45705;55.592;37.460;2022-08-16T08:49:02;9.48;;;4.05;;
58294;SDS011;45705;55.592;37.460;2022-08-16T08:51:35;8.23;;;3.78;;
58294;SDS011;45705;55.592;37.460;2022-08-16T08:54:04;9.82;;;3.80;;
58294;SDS011;45705;55.592;37.460;2022-08-16T08:56:34;9.68;;;4.30;;
58294;SDS011;45705;55.592;37.460;2022-08-16T08:59:07;7.63;;;4.18;;
58294;SDS011;45705;55.592;37.460;2022-08-16T09:01:37;11.27;;;4.10;;
58294;SDS011;45705;55.592;37.460;2022-08-16T09:04:06;6.63;;;4.10;;
58294;SDS011;45705;55.592;37.460;2022-08-16T09:06:35;7.63;;;3.85;;
58294;SDS011;45705;55.592;37.460;2022-08-16T09:09:02;6.95;;;4.03;;
58294;SDS011;45705;55.592;37.460;2022-08-16T09:13:56;5.53;;;3.40;;
58294;SDS011;45705;55.592;37.460;2022-08-16T09:16:22;7.95;;;3.85;;
58294;SDS011;45705;55.592;37.460;2022-08-16T09:18:49;11.53;;;3.83;;
58294;SDS011;45705;55.592;37.460;2022-08-16T09:21:15;5.70;;;3.80;;
58294;SDS011;45705;55.592;37.460;2022-08-16T09:23:41;7.32;;;3.88;;
58294;SDS011;45705;55.592;37.460;2022-08-16T09:26:10;8.40;;;4.43;;
58294;SDS011;45705;55.592;37.460;2022-08-16T09:28:41;3.95;;;3.28;;
58294;SDS011;45705;55.592;37.460;2022-08-16T09:31:15;6.15;;;4.32;;
58294;SDS011;45705;55.592;37.460;2022-08-16T09:33:42;7.05;;;4.15;;
58294;SDS011;45705;55.592;37.460;2022-08-16T09:36:09;3.92;;;3.35;;
58294;SDS011;45705;55.592;37.460;2022-08-16T09:38:36;9.77;;;3.90;;
58294;SDS011;45705;55.592;37.460;2022-08-16T09:41:04;9.18;;;4.32;;
58294;SDS011;45705;55.592;37.460;2022-08-16T09:43:33;8.70;;;3.50;;
58294;SDS011;45705;55.592;37.460;2022-08-16T09:46:00;7.20;;;3.75;;
58294;SDS011;45705;55.592;37.460;2022-08-16T09:48:27;6.63;;;3.90;;
58294;SDS011;45705;55.592;37.460;2022-08-16T09:50:53;10.05;;;4.20;;
58294;SDS011;45705;55.592;37.460;2022-08-16T09:53:20;8.13;;;3.60;;
58294;SDS011;45705;55.592;37.460;2022-08-16T09:55:48;7.18;;;3.83;;
58294;SDS011;45705;55.592;37.460;2022-08-16T09:58:18;8.52;;;3.85;;
58294;SDS011;45705;55.592;37.460;2022-08-16T10:00:45;7.00;;;4.28;;
58294;SDS011;45705;55.592;37.460;2022-08-16T10:03:11;5.15;;;4.00;;
58294;SDS011;45705;55.592;37.460;2022-08-16T10:05:36;8.73;;;3.45;;
58294;SDS011;45705;55.592;37.460;2022-08-16T10:08:03;9.50;;;3.70;;
58294;SDS011;45705;55.592;37.460;2022-08-16T10:10:31;6.93;;;3.47;;
58294;SDS011;45705;55.592;37.460;2022-08-16T10:12:59;4.63;;;3.15;;
58294;SDS011;45705;55.592;37.460;2022-08-16T10:15:38;5.22;;;3.13;;
58294;SDS011;45705;55.592;37.460;2022-08-16T10:18:10;6.38;;;3.28;;
58294;SDS011;45705;55.592;37.460;2022-08-16T10:23:08;4.97;;;3.50;;
58294;SDS011;45705;55.592;37.460;2022-08-16T10:25:37;5.78;;;3.38;;
58294;SDS011;45705;55.592;37.460;2022-08-16T10:28:09;12.10;;;4.65;;
58294;SDS011;45705;55.592;37.460;2022-08-16T10:30:36;6.28;;;3.28;;
58294;SDS011;45705;55.592;37.460;2022-08-16T10:33:03;8.07;;;4.27;;
58294;SDS011;45705;55.592;37.460;2022-08-16T10:35:29;6.47;;;4.15;;
58294;SDS011;45705;55.592;37.460;2022-08-16T10:37:56;8.25;;;4.20;;
58294;SDS011;45705;55.592;37.460;2022-08-16T10:40:22;5.97;;;3.78;;
58294;SDS011;45705;55.592;37.460;2022-08-16T10:42:48;8.90;;;3.92;;
58294;SDS011;45705;55.592;37.460;2022-08-16T10:45:15;9.38;;;4.05;;
58294;SDS011;45705;55.592;37.460;2022-08-16T10:47:42;7.67;;;4.30;;
58294;SDS011;45705;55.592;37.460;2022-08-16T10:50:08;7.40;;;3.92;;
58294;SDS011;45705;55.592;37.460;2022-08-16T10:52:34;6.88;;;4.38;;
58294;SDS011;45705;55.592;37.460;2022-08-16T10:54:59;7.97;;;4.38;;
58294;SDS011;45705;55.592;37.460;2022-08-16T10:57:26;5.18;;;3.50;;
58294;SDS011;45705;55.592;37.460;2022-08-16T10:59:53;7.70;;;4.07;;
58294;SDS011;45705;55.592;37.460;2022-08-16T11:02:20;6.13;;;4.15;;
58294;SDS011;45705;55.592;37.460;2022-08-16T11:04:48;14.18;;;5.38;;
58294;SDS011;45705;55.592;37.460;2022-08-16T11:07:14;4.82;;;4.28;;
58294;SDS011;45705;55.592;37.460;2022-08-16T11:09:40;7.40;;;4.32;;
58294;SDS011;45705;55.592;37.460;2022-08-16T11:12:06;10.35;;;4.22;;
58294;SDS011;45705;55.592;37.460;2022-08-16T11:14:33;5.57;;;3.95;;
58294;SDS011;45705;55.592;37.460;2022-08-16T11:17:00;8.23;;;4.23;;
58294;SDS011;45705;55.592;37.460;2022-08-16T11:19:27;7.20;;;4.68;;
58294;SDS011;45705;55.592;37.460;2022-08-16T11:21:54;9.98;;;4.38;;
58294;SDS011;45705;55.592;37.460;2022-08-16T11:24:20;12.43;;;4.35;;
58294;SDS011;45705;55.592;37.460;2022-08-16T11:26:46;10.15;;;4.30;;
58294;SDS011;45705;55.592;37.460;2022-08-16T11:29:15;7.60;;;4.30;;
58294;SDS011;45705;55.592;37.460;2022-08-16T11:31:41;8.57;;;4.85;;
58294;SDS011;45705;55.592;37.460;2022-08-16T11:34:07;9.10;;;4.70;;
58294;SDS011;45705;55.592;37.460;2022-08-16T11:36:34;9.40;;;4.60;;
58294;SDS011;45705;55.592;37.460;2022-08-16T11:39:01;7.63;;;4.30;;
58294;SDS011;45705;55.592;37.460;2022-08-16T11:41:27;8.55;;;4.60;;
58294;SDS011;45705;55.592;37.460;2022-08-16T11:43:53;5.63;;;4.30;;
58294;SDS011;45705;55.592;37.460;2022-08-16T11:46:19;7.63;;;4.65;;
58294;SDS011;45705;55.592;37.460;2022-08-16T11:48:45;7.28;;;4.15;;
58294;SDS011;45705;55.592;37.460;2022-08-16T11:51:12;9.80;;;5.07;;
58294;SDS011;45705;55.592;37.460;2022-08-16T11:53:37;9.40;;;4.80;;
58294;SDS011;45705;55.592;37.460;2022-08-16T11:56:04;8.18;;;4.93;;
58294;SDS011;45705;55.592;37.460;2022-08-16T11:58:30;10.48;;;5.38;;
58294;SDS011;45705;55.592;37.460;2022-08-16T12:00:57;6.75;;;4.97;;
58294;SDS011;45705;55.592;37.460;2022-08-16T12:03:24;7.18;;;4.80;;
58294;SDS011;45705;55.592;37.460;2022-08-16T12:05:51;6.88;;;4.70;;
58294;SDS011;45705;55.592;37.460;2022-08-16T12:08:18;10.02;;;4.53;;
58294;SDS011;45705;55.592;37.460;2022-08-16T12:10:45;8.65;;;4.85;;
58294;SDS011;45705;55.592;37.460;2022-08-16T12:13:11;5.00;;;4.50;;
58294;SDS011;45705;55.592;37.460;2022-08-16T12:15:38;7.32;;;4.45;;
58294;SDS011;45705;55.592;37.460;2022-08-16T12:18:05;8.70;;;4.77;;
58294;SDS011;45705;55.592;37.460;2022-08-16T12:20:33;12.68;;;4.88;;
58294;SDS011;45705;55.592;37.460;2022-08-16T12:23:05;6.68;;;4.55;;
58294;SDS011;45705;55.592;37.460;2022-08-16T12:25:32;6.57;;;4.35;;
58294;SDS011;45705;55.592;37.460;2022-08-16T12:27:58;6.45;;;5.03;;
58294;SDS011;45705;55.592;37.460;2022-08-16T12:30:26;5.30;;;4.22;;
58294;SDS011;45705;55.592;37.460;2022-08-16T12:32:55;8.23;;;4.90;;
58294;SDS011;45705;55.592;37.460;2022-08-16T12:35:23;8.02;;;4.40;;
58294;SDS011;45705;55.592;37.460;2022-08-16T12:37:50;5.50;;;4.35;;
58294;SDS011;45705;55.592;37.460;2022-08-16T12:40:22;9.15;;;4.18;;
58294;SDS011;45705;55.592;37.460;2022-08-16T12:42:50;9.02;;;4.50;;
58294;SDS011;45705;55.592;37.460;2022-08-16T12:45:19;7.72;;;4.40;;
58294;SDS011;45705;55.592;37.460;2022-08-16T12:47:46;5.75;;;4.13;;
58294;SDS011;45705;55.592;37.460;2022-08-16T12:50:32;10.63;;;4.10;;
58294;SDS011;45705;55.592;37.460;2022-08-16T12:52:59;9.23;;;4.75;;
58294;SDS011;45705;55.592;37.460;2022-08-16T12:55:25;9.15;;;4.60;;
58294;SDS011;45705;55.592;37.460;2022-08-16T12:57:51;11.50;;;4.63;;
58294;SDS011;45705;55.592;37.460;2022-08-16T13:00:18;9.00;;;5.23;;
58294;SDS011;45705;55.592;37.460;2022-08-16T13:02:45;6.75;;;4.07;;
58294;SDS011;45705;55.592;37.460;2022-08-16T13:05:12;8.18;;;4.72;;
58294;SDS011;45705;55.592;37.460;2022-08-16T13:07:39;9.13;;;4.53;;
58294;SDS011;45705;55.592;37.460;2022-08-16T13:10:06;6.97;;;4.97;;
58294;SDS011;45705;55.592;37.460;2022-08-16T13:12:39;12.63;;;4.80;;
58294;SDS011;45705;55.592;37.460;2022-08-16T13:15:07;12.77;;;5.38;;
58294;SDS011;45705;55.592;37.460;2022-08-16T13:17:36;9.77;;;5.18;;
58294;SDS011;45705;55.592;37.460;2022-08-16T13:20:05;13.35;;;5.20;;
58294;SDS011;45705;55.592;37.460;2022-08-16T13:22:34;6.60;;;5.00;;
58294;SDS011;45705;55.592;37.460;2022-08-16T13:25:06;8.05;;;5.15;;
58294;SDS011;45705;55.592;37.460;2022-08-16T13:27:33;8.82;;;5.32;;
58294;SDS011;45705;55.592;37.460;2022-08-16T13:29:59;10.05;;;5.22;;
58294;SDS011;45705;55.592;37.460;2022-08-16T13:32:24;12.55;;;5.10;;
58294;SDS011;45705;55.592;37.460;2022-08-16T13:34:50;8.45;;;4.82;;
58294;SDS011;45705;55.592;37.460;2022-08-16T13:37:16;9.35;;;5.75;;
58294;SDS011;45705;55.592;37.460;2022-08-16T13:39:42;9.23;;;5.63;;
58294;SDS011;45705;55.592;37.460;2022-08-16T13:42:08;9.18;;;5.50;;
58294;SDS011;45705;55.592;37.460;2022-08-16T13:44:35;8.38;;;5.50;;
58294;SDS011;45705;55.592;37.460;2022-08-16T13:47:02;6.90;;;4.75;;
58294;SDS011;45705;55.592;37.460;2022-08-16T13:49:28;9.48;;;5.38;;
58294;SDS011;45705;55.592;37.460;2022-08-16T13:51:54;7.53;;;5.53;;
58294;SDS011;45705;55.592;37.460;2022-08-16T13:54:19;7.93;;;5.78;;
58294;SDS011;45705;55.592;37.460;2022-08-16T13:56:45;9.32;;;5.72;;
58294;SDS011;45705;55.592;37.460;2022-08-16T13:59:11;7.18;;;5.53;;
58294;SDS011;45705;55.592;37.460;2022-08-16T14:01:40;12.77;;;5.63;;
58294;SDS011;45705;55.592;37.460;2022-08-16T14:04:07;10.80;;;5.80;;
58294;SDS011;45705;55.592;37.460;2022-08-16T14:06:33;12.50;;;5.63;;
58294;SDS011;45705;55.592;37.460;2022-08-16T14:08:58;8.85;;;5.68;;
58294;SDS011;45705;55.592;37.460;2022-08-16T14:11:24;9.07;;;5.40;;
58294;SDS011;45705;55.592;37.460;2022-08-16T14:13:50;14.05;;;5.85;;
58294;SDS011;45705;55.592;37.460;2022-08-16T14:16:16;9.80;;;6.22;;
58294;SDS011;45705;55.592;37.460;2022-08-16T14:18:42;11.60;;;5.95;;
58294;SDS011;45705;55.592;37.460;2022-08-16T14:21:08;7.55;;;5.40;;
58294;SDS011;45705;55.592;37.460;2022-08-16T14:23:34;12.35;;;6.40;;
58294;SDS011;45705;55.592;37.460;2022-08-16T14:25:59;9.32;;;6.15;;
58294;SDS011;45705;55.592;37.460;2022-08-16T14:28:25;11.80;;;5.85;;
58294;SDS011;45705;55.592;37.460;2022-08-16T14:30:52;10.52;;;6.47;;
58294;SDS011;45705;55.592;37.460;2022-08-16T14:33:18;11.45;;;6.70;;
58294;SDS011;45705;55.592;37.460;2022-08-16T14:35:44;19.65;;;6.88;;
58294;SDS011;45705;55.592;37.460;2022-08-16T14:38:10;11.75;;;6.63;;
58294;SDS011;45705;55.592;37.460;2022-08-16T14:40:36;9.95;;;6.70;;
58294;SDS011;45705;55.592;37.460;2022-08-16T14:43:02;12.90;;;6.72;;
58294;SDS011;45705;55.592;37.460;2022-08-16T14:45:28;9.18;;;7.05;;
58294;SDS011;45705;55.592;37.460;2022-08-16T14:47:54;10.45;;;7.00;;
58294;SDS011;45705;55.592;37.460;2022-08-16T14:50:23;8.15;;;6.30;;
58294;SDS011;45705;55.592;37.460;2022-08-16T14:52:54;11.27;;;7.15;;
58294;SDS011;45705;55.592;37.460;2022-08-16T14:55:23;13.95;;;6.97;;
58294;SDS011;45705;55.592;37.460;2022-08-16T14:57:55;12.63;;;7.35;;
58294;SDS011;45705;55.592;37.460;2022-08-16T15:00:21;15.43;;;7.70;;
58294;SDS011;45705;55.592;37.460;2022-08-16T15:02:50;14.07;;;9.15;;